Time;durP1;ratioP1;P1;durP2;ratioP2;P2;SDS_P1;SDS_P2;PMS_P1;PMS_P2;Temp;Humidity;BMP_temperature;BMP_pressure;BME280_temperature;BME280_humidity;BME280_pressure;Samples;Min_cycle;Max_cycle;Signal;HPM_P1;HPM_P2
2023/05/30 00:00:57;;;;;;;5.03;3.53;;;;;;;15.04;100.00;64538.47;5030781;28;20581;-57
2023/05/30 00:03:23;;;;;;;6.18;4.47;;;;;;;14.93;100.00;64530.88;5030770;28;20234;-57
2023/05/30 00:05:49;;;;;;;5.55;3.67;;;;;;;14.86;100.00;64523.19;5030391;28;20210;-57
2023/05/30 00:08:15;;;;;;;8.95;4.55;;;;;;;14.96;100.00;64529.66;5030383;28;20241;-57
2023/05/30 00:10:41;;;;;;;7.50;4.45;;;;;;;14.84;100.00;64519.00;5030546;28;20205;-58
2023/05/30 00:13:06;;;;;;;6.53;4.03;;;;;;;14.88;100.00;64523.41;5030810;28;20209;-57
2023/05/30 00:15:32;;;;;;;4.95;4.30;;;;;;;14.74;100.00;64507.47;5030417;28;20706;-57
2023/05/30 00:17:58;;;;;;;12.30;4.50;;;;;;;14.77;100.00;64508.78;5030292;28;20260;-57
2023/05/30 00:20:24;;;;;;;9.10;4.38;;;;;;;14.76;100.00;64507.13;5030553;28;20715;-59
2023/05/30 00:22:51;;;;;;;6.15;4.22;;;;;;;14.68;100.00;64503.97;5030485;28;20205;-59
2023/05/30 00:25:20;;;;;;;4.75;3.72;;;;;;;14.72;100.00;64507.81;5033050;28;20707;-61
2023/05/30 00:27:46;;;;;;;6.88;4.05;;;;;;;14.75;100.00;64508.56;5033896;28;20191;-59
2023/05/30 00:30:12;;;;;;;4.30;3.67;;;;;;;14.77;100.00;64510.75;5033967;28;20261;-61
2023/05/30 00:32:38;;;;;;;6.03;4.50;;;;;;;14.81;100.00;64518.25;5033668;28;20660;-60
2023/05/30 00:35:05;;;;;;;8.80;4.30;;;;;;;14.69;100.00;64504.50;5033637;28;20217;-60
2023/05/30 00:37:30;;;;;;;4.93;3.45;;;;;;;14.69;100.00;64502.50;5033892;28;20198;-60
2023/05/30 00:39:55;;;;;;;5.60;3.50;;;;;;;14.52;100.00;64483.84;5033658;28;20295;-61
2023/05/30 00:42:21;;;;;;;6.47;3.58;;;;;;;14.76;100.00;64509.66;5033596;28;20214;-59
2023/05/30 00:44:46;;;;;;;4.10;3.70;;;;;;;14.57;100.00;64491.31;5033457;28;20228;-61
2023/05/30 00:47:13;;;;;;;8.50;3.20;;;;;;;14.76;100.00;64509.66;5033790;28;20671;-57
2023/05/30 00:49:40;;;;;;;4.95;3.60;;;;;;;14.70;100.00;64503.63;5034139;28;20213;-57
2023/05/30 00:52:07;;;;;;;5.53;3.40;;;;;;;14.66;100.00;64496.69;5033690;28;20182;-58
2023/05/30 00:54:33;;;;;;;8.35;4.03;;;;;;;14.58;100.00;64489.88;5032413;28;20206;-60
2023/05/30 00:56:58;;;;;;;5.57;3.58;;;;;;;14.62;100.00;64494.84;5033250;28;20194;-61
2023/05/30 00:59:24;;;;;;;8.68;3.60;;;;;;;14.62;100.00;64494.84;5032305;28;20245;-61
2023/05/30 01:01:50;;;;;;;5.18;3.28;;;;;;;14.52;100.00;64483.28;5033401;28;20257;-60
2023/05/30 01:04:15;;;;;;;6.55;3.53;;;;;;;14.54;100.00;64486.03;5033321;28;20285;-60
2023/05/30 01:06:41;;;;;;;5.65;3.78;;;;;;;14.62;100.00;64494.84;5033402;28;20206;-60
2023/05/30 01:09:07;;;;;;;5.97;3.40;;;;;;;14.63;100.00;64495.91;5033164;28;20216;-60
2023/05/30 01:11:52;;;;;;;4.63;3.38;;;;;;;14.58;100.00;64490.44;5033176;28;20664;-59
2023/05/30 01:14:39;;;;;;;6.90;3.85;;;;;;;14.60;100.00;64495.16;5019118;28;20233;-60
2023/05/30 01:17:20;;;;;;;5.22;3.05;;;;;;;14.39;100.00;64469.00;5033230;28;20197;-59
2023/05/30 01:20:07;;;;;;;4.95;3.70;;;;;;;14.60;100.00;64489.53;5033664;28;20213;-57
2023/05/30 01:22:48;;;;;;;3.22;2.92;;;;;;;14.59;100.00;64490.97;5033075;28;20186;-56
2023/05/30 01:25:27;;;;;;;4.82;3.38;;;;;;;14.64;100.00;64496.47;5032990;28;20210;-60
2023/05/30 01:27:55;;;;;;;3.92;3.22;;;;;;;14.62;100.00;64491.75;5032805;28;20636;-57
2023/05/30 01:30:24;;;;;;;7.78;3.60;;;;;;;14.71;100.00;64502.19;5033072;28;20280;-60
2023/05/30 01:32:50;;;;;;;6.05;3.10;;;;;;;14.54;100.00;64486.03;5033248;28;20194;-61
2023/05/30 01:35:23;;;;;;;4.20;3.00;;;;;;;14.45;100.00;64475.59;5033144;28;20672;-65
2023/05/30 01:37:49;;;;;;;3.80;3.30;;;;;;;14.69;100.00;64507.59;5033051;28;20191;-59
2023/05/30 01:40:22;;;;;;;6.63;3.72;;;;;;;14.61;100.00;64493.72;5032982;28;20255;-60
2023/05/30 01:42:54;;;;;;;3.83;3.47;;;;;;;14.42;100.00;64472.84;5033182;28;20194;-57
2023/05/30 01:45:27;;;;;;;3.80;3.30;;;;;;;14.37;100.00;64467.34;5033091;28;20297;-60
2023/05/30 01:48:10;;;;;;;3.53;3.22;;;;;;;14.41;100.00;64471.75;5032944;28;20686;-58
2023/05/30 01:50:41;;;;;;;5.97;3.75;;;;;;;14.39;100.00;64469.00;5033051;28;20193;-58
2023/05/30 01:53:10;;;;;;;6.18;3.00;;;;;;;14.41;100.00;64473.72;5032846;28;20305;-60
2023/05/30 01:55:38;;;;;;;5.90;3.35;;;;;;;14.48;100.00;64481.97;5032737;28;20186;-59
2023/05/30 01:58:05;;;;;;;5.43;3.47;;;;;;;14.63;100.00;64495.91;5032939;28;20214;-58
2023/05/30 02:00:31;;;;;;;3.42;3.13;;;;;;;14.69;100.00;64505.06;5032829;28;20248;-59
2023/05/30 02:02:56;;;;;;;3.90;3.40;;;;;;;14.50;100.00;64486.72;5032812;28;20190;-56
2023/05/30 02:05:22;;;;;;;4.13;3.58;;;;;;;14.40;100.00;64473.19;5032619;28;20214;-56
2023/05/30 02:07:47;;;;;;;7.70;3.42;;;;;;;14.37;100.00;64464.25;5014783;28;20220;-56
2023/05/30 02:10:13;;;;;;;6.85;3.25;;;;;;;14.37;100.00;64469.88;5032656;28;20198;-57
2023/05/30 02:12:38;;;;;;;8.20;4.38;;;;;;;14.50;100.00;64484.19;5032617;28;20198;-56
2023/05/30 02:15:04;;;;;;;5.20;4.03;;;;;;;14.51;100.00;64485.28;5032399;28;20206;-57
2023/05/30 02:17:29;;;;;;;4.53;3.90;;;;;;;14.40;100.00;64468.13;5032482;28;20321;-56
2023/05/30 02:19:55;;;;;;;5.72;3.97;;;;;;;14.25;100.00;64456.69;5032300;28;20767;-57
2023/05/30 02:22:21;;;;;;;4.60;3.78;;;;;;;14.22;100.00;64450.84;5032430;28;20182;-60
2023/05/30 02:24:47;;;;;;;5.07;3.58;;;;;;;14.27;100.00;64456.34;5032169;28;20206;-60
2023/05/30 02:27:12;;;;;;;4.70;3.75;;;;;;;14.28;100.00;64460.53;5030917;28;20577;-56
2023/05/30 02:29:38;;;;;;;8.00;4.70;;;;;;;14.23;100.00;64454.47;5032271;28;20202;-56
2023/05/30 02:32:04;;;;;;;7.28;4.68;;;;;;;14.13;100.00;64443.50;5032405;28;20182;-57
2023/05/30 02:34:29;;;;;;;7.57;4.43;;;;;;;14.18;100.00;64446.47;5032226;28;20214;-57
2023/05/30 02:36:56;;;;;;;6.88;4.45;;;;;;;14.21;100.00;64449.75;5032044;28;20268;-57
2023/05/30 02:39:24;;;;;;;5.88;4.68;;;;;;;14.23;100.00;64455.03;5031958;28;20214;-58
2023/05/30 02:41:49;;;;;;;8.25;4.18;;;;;;;14.07;100.00;64436.91;5031992;28;20181;-57
2023/05/30 02:44:15;;;;;;;9.15;4.25;;;;;;;14.23;100.00;64452.50;5032500;28;20297;-56
2023/05/30 02:46:41;;;;;;;7.53;4.35;;;;;;;14.14;100.00;64444.59;5031338;28;20241;-57
2023/05/30 02:49:06;;;;;;;6.63;4.57;;;;;;;14.08;100.00;64438.00;5032264;28;20305;-56
2023/05/30 02:51:32;;;;;;;6.57;4.05;;;;;;;13.95;100.00;64421.19;5032026;28;20221;-57
2023/05/30 02:53:57;;;;;;;8.00;4.13;;;;;;;14.07;100.00;64434.38;5031782;28;20218;-56
2023/05/30 02:56:27;;;;;;;10.27;5.57;;;;;;;14.07;100.00;64434.38;5031959;28;20178;-58
2023/05/30 02:58:54;;;;;;;7.28;4.30;;;;;;;14.05;100.00;64432.72;5031778;28;20276;-57
2023/05/30 03:01:20;;;;;;;6.22;4.07;;;;;;;14.07;100.00;64432.41;5030257;28;20664;-57
2023/05/30 03:03:45;;;;;;;6.80;4.30;;;;;;;13.87;100.00;64412.97;5031916;28;20206;-56
2023/05/30 03:06:12;;;;;;;5.15;4.00;;;;;;;14.16;100.00;64444.81;5031676;28;20595;-57
2023/05/30 03:08:37;;;;;;;8.23;4.30;;;;;;;14.29;100.00;64461.66;5031882;28;20213;-57
2023/05/30 03:11:03;;;;;;;5.07;4.25;;;;;;;14.20;100.00;64449.19;5031646;28;20240;-59
2023/05/30 03:13:28;;;;;;;5.93;4.75;;;;;;;13.98;100.00;64425.03;5032065;28;20214;-60
2023/05/30 03:15:54;;;;;;;10.32;5.03;;;;;;;13.78;100.00;64405.03;5031553;28;20584;-60
2023/05/30 03:18:20;;;;;;;9.77;4.55;;;;;;;13.86;100.00;64414.38;5031491;28;20295;-60
2023/05/30 03:20:45;;;;;;;6.90;4.50;;;;;;;13.98;100.00;64429.53;5031790;28;20201;-59
2023/05/30 03:23:11;;;;;;;8.40;4.63;;;;;;;14.06;100.00;64433.25;5031400;28;20245;-60
2023/05/30 03:25:36;;;;;;;4.63;4.07;;;;;;;14.09;100.00;64437.13;5031167;28;20692;-59
2023/05/30 03:28:06;;;;;;;7.70;4.88;;;;;;;14.00;100.00;64429.75;5031412;28;20216;-59
2023/05/30 03:30:31;;;;;;;12.10;5.80;;;;;;;13.84;100.00;64409.09;5031215;28;20231;-59
2023/05/30 03:32:57;;;;;;;13.82;6.05;;;;;;;13.51;100.00;64373.44;5030350;28;20219;-59
2023/05/30 03:35:23;;;;;;;10.95;5.78;;;;;;;13.60;100.00;64383.31;5030515;28;20189;-56
2023/05/30 03:37:48;;;;;;;8.10;5.03;;;;;;;13.56;100.00;64378.38;5031241;28;20198;-58
2023/05/30 03:40:13;;;;;;;8.30;4.80;;;;;;;13.70;100.00;64396.25;5031318;28;20277;-56
2023/05/30 03:42:39;;;;;;;9.77;5.18;;;;;;;13.86;100.00;64411.84;5031190;28;20190;-58
2023/05/30 03:45:05;;;;;;;9.25;5.40;;;;;;;14.01;100.00;64430.88;5030893;28;20213;-61
2023/05/30 03:47:30;;;;;;;5.53;4.57;;;;;;;14.18;100.00;64447.00;5031019;28;20638;-60
2023/05/30 03:49:56;;;;;;;9.90;5.18;;;;;;;14.19;100.00;64447.56;5030905;28;20216;-60
2023/05/30 03:52:21;;;;;;;10.15;5.00;;;;;;;14.06;100.00;64433.25;5030961;28;20189;-60
2023/05/30 03:54:46;;;;;;;6.95;5.28;;;;;;;13.90;100.00;64418.22;5031131;28;20212;-60
2023/05/30 03:57:12;;;;;;;8.07;5.10;;;;;;;13.98;100.00;64425.03;5031076;28;20240;-61
2023/05/30 03:59:37;;;;;;;9.60;5.28;;;;;;;13.96;100.00;64422.84;5030081;28;20225;-61
2023/05/30 04:02:03;;;;;;;9.63;5.90;;;;;;;14.15;100.00;64443.72;5030945;28;20225;-59
2023/05/30 04:04:36;;;;;;;9.23;5.50;;;;;;;14.22;100.00;64451.41;5030836;28;20700;-59
2023/05/30 04:07:02;;;;;;;9.45;5.57;;;;;;;14.09;100.00;64437.13;5031142;28;20217;-60
2023/05/30 04:09:27;;;;;;;12.50;5.40;;;;;;;14.03;100.00;64432.50;5030740;28;20646;-59
2023/05/30 04:11:54;;;;;;;10.07;5.72;;;;;;;14.17;100.00;64445.34;5030823;28;20680;-59
2023/05/30 04:14:19;;;;;;;7.13;5.05;;;;;;;14.34;100.00;64466.59;5031114;28;20214;-59
2023/05/30 04:16:44;;;;;;;9.30;4.70;;;;;;;14.24;100.00;64453.06;5030795;28;20209;-59
2023/05/30 04:19:10;;;;;;;8.38;4.70;;;;;;;14.31;100.00;64460.75;5031275;28;20265;-58
2023/05/30 04:21:36;;;;;;;9.57;5.88;;;;;;;14.37;100.00;64469.88;5012218;28;20193;-58
2023/05/30 04:24:03;;;;;;;16.38;8.77;;;;;;;14.32;100.00;64461.31;5029461;28;20261;-58
2023/05/30 04:26:29;;;;;;;12.73;6.35;;;;;;;14.05;100.00;64435.25;5030623;28;20256;-57
2023/05/30 04:28:57;;;;;;;9.38;5.95;;;;;;;14.24;100.00;64453.59;5030325;28;20241;-56
2023/05/30 04:31:24;;;;;;;6.35;3.92;;;;;;;14.62;100.00;64494.28;5030227;28;20189;-56
2023/05/30 04:33:54;;;;;;;16.52;6.10;;;;;;;14.99;100.00;64535.50;5030175;28;20716;-56
2023/05/30 04:36:19;;;;;;;9.88;5.47;;;;;;;15.02;100.00;64535.69;5030293;28;20193;-57
2023/05/30 04:38:47;;;;;;;8.95;5.47;;;;;;;14.83;100.00;64520.44;5030287;28;20587;-57
2023/05/30 04:41:18;;;;;;;6.22;5.10;;;;;;;14.74;100.00;64505.47;5030386;28;20659;-57
2023/05/30 04:43:54;;;;;;;7.82;4.60;;;;;;;14.81;100.00;64517.69;5030461;28;20260;-56
2023/05/30 04:46:23;;;;;;;7.68;5.25;;;;;;;14.90;100.00;64528.13;5030409;28;20249;-55
2023/05/30 04:48:53;;;;;;;8.80;5.22;;;;;;;14.88;100.00;64525.38;5030442;28;20210;-58
2023/05/30 04:51:25;;;;;;;5.40;4.70;;;;;;;15.05;100.00;64539.53;5030228;28;20256;-58
2023/05/30 04:53:51;;;;;;;13.40;6.72;;;;;;;15.04;100.00;64541.00;5030058;28;20287;-59
2023/05/30 04:56:17;;;;;;;9.60;5.30;;;;;;;14.98;100.00;64533.84;5030091;28;20712;-58
2023/05/30 04:58:48;;;;;;;9.20;5.50;;;;;;;14.90;100.00;64525.59;5030136;28;20249;-58
2023/05/30 05:01:13;;;;;;;8.32;5.25;;;;;;;14.74;100.00;64508.03;5029769;28;20234;-60
2023/05/30 05:03:40;;;;;;;6.97;5.28;;;;;;;14.86;100.00;64520.66;5030221;28;20367;-58
2023/05/30 05:06:07;;;;;;;13.65;6.82;;;;;;;14.81;100.00;64518.25;5030008;28;20217;-58
2023/05/30 05:08:34;;;;;;;11.05;6.85;;;;;;;14.69;100.00;64504.50;5030252;28;20210;-59
2023/05/30 05:11:04;;;;;;;8.50;6.38;;;;;;;14.89;100.00;64527.03;5032226;28;20190;-59
2023/05/30 05:13:33;;;;;;;10.50;6.20;;;;;;;15.23;100.00;64563.31;5033694;28;20233;-59
2023/05/30 05:16:00;;;;;;;7.63;5.45;;;;;;;15.63;100.00;64605.34;5033445;28;20734;-58
2023/05/30 05:18:26;;;;;;;8.82;5.22;;;;;;;15.60;100.00;64599.50;5033695;28;21073;-60
2023/05/30 05:20:52;;;;;;;7.95;5.90;;;;;;;15.47;100.00;64587.19;5033463;28;20198;-59
2023/05/30 05:23:18;;;;;;;7.47;5.32;;;;;;;15.31;100.00;64567.56;5033101;28;20648;-59
2023/05/30 05:25:44;;;;;;;8.98;5.40;;;;;;;15.39;100.00;64576.38;5032892;28;20209;-60
2023/05/30 05:28:09;;;;;;;7.80;4.53;;;;;;;15.50;100.00;64590.50;5033612;28;20693;-59
2023/05/30 05:30:35;;;;;;;13.63;7.85;;;;;;;15.53;100.00;64593.81;5033269;28;20660;-58
2023/05/30 05:33:00;;;;;;;10.15;5.95;;;;;;;15.47;100.00;64587.19;5032976;28;20644;-60
2023/05/30 05:35:26;;;;;;;10.10;6.70;;;;;;;15.35;100.00;64573.97;5032199;28;20277;-59
2023/05/30 05:37:51;;;;;;;9.70;6.32;;;;;;;15.45;100.00;64587.53;5031414;28;20178;-59
2023/05/30 05:40:17;;;;;;;9.75;5.78;;;;;;;15.51;100.00;64591.59;5031145;28;20667;-59
2023/05/30 05:42:43;;;;;;;7.32;6.43;;;;;;;15.70;100.00;64612.50;5031667;28;20178;-59
2023/05/30 05:45:09;;;;;;;9.55;5.68;;;;;;;15.75;100.00;64618.00;5032283;28;20276;-59
2023/05/30 05:47:35;;;;;;;8.52;6.28;;;;;;;15.62;100.00;64603.69;5033136;28;20227;-58
2023/05/30 05:50:00;;;;;;;8.05;6.38;;;;;;;15.68;100.00;64610.84;5033004;28;20206;-57
2023/05/30 05:52:26;;;;;;;9.50;6.78;;;;;;;15.71;100.00;64611.63;5033102;28;20711;-57
2023/05/30 05:54:52;;;;;;;12.65;6.95;;;;;;;16.36;100.00;64687.13;5032802;28;20633;-56
2023/05/30 05:57:17;;;;;;;12.45;7.25;;;;;;;17.08;100.00;64760.78;5032854;28;20182;-56
2023/05/30 05:59:43;;;;;;;11.65;7.20;;;;;;;18.05;100.00;64867.72;5032598;28;20198;-57
2023/05/30 06:02:08;;;;;;;9.57;6.38;;;;;;;18.82;100.00;64952.13;5032818;28;20178;-56
2023/05/30 06:04:33;;;;;;;11.55;6.35;;;;;;;19.02;100.00;64973.63;5033084;28;20237;-56
2023/05/30 06:06:59;;;;;;;10.30;6.15;;;;;;;19.37;100.00;65012.28;5032588;28;20619;-59
2023/05/30 06:09:30;;;;;;;11.15;6.63;;;;;;;19.43;100.00;65020.91;5032910;28;20218;-56
2023/05/30 06:11:56;;;;;;;13.13;5.95;;;;;;;19.70;100.00;65050.72;5031230;28;20182;-56
2023/05/30 06:14:22;;;;;;;8.77;5.60;;;;;;;19.80;95.81;65056.63;5030489;28;20293;-57
2023/05/30 06:16:48;;;;;;;12.52;6.28;;;;;;;19.79;97.55;65061.22;5032668;28;20277;-55
2023/05/30 06:19:13;;;;;;;9.23;6.22;;;;;;;19.48;87.92;65023.88;5032366;28;20640;-56
2023/05/30 06:21:39;;;;;;;11.38;5.97;;;;;;;18.36;94.28;64901.88;5031622;28;20183;-56
2023/05/30 06:24:05;;;;;;;12.57;6.03;;;;;;;18.17;98.56;64880.38;5032289;28;20210;-57
2023/05/30 06:26:31;;;;;;;8.90;6.05;;;;;;;18.03;100.00;64864.94;5032247;28;20298;-57
2023/05/30 06:28:56;;;;;;;8.77;5.43;;;;;;;17.90;100.00;64856.25;5032546;28;20300;-56
2023/05/30 06:31:22;;;;;;;13.10;6.47;;;;;;;17.78;100.00;64837.94;5032153;28;20255;-56
2023/05/30 06:33:48;;;;;;;18.85;7.80;;;;;;;17.30;100.00;64785.03;5032487;28;20275;-57
2023/05/30 06:36:13;;;;;;;14.40;7.68;;;;;;;17.34;100.00;64791.97;5031732;28;20189;-57
2023/05/30 06:38:39;;;;;;;15.45;7.50;;;;;;;17.17;100.00;64773.25;5031575;28;20222;-56
2023/05/30 06:41:04;;;;;;;12.32;7.18;;;;;;;17.26;100.00;64783.16;5031272;28;20584;-57
2023/05/30 06:43:30;;;;;;;11.80;6.60;;;;;;;17.36;100.00;64794.19;5032186;28;20716;-57
2023/05/30 06:45:55;;;;;;;11.15;6.97;;;;;;;17.48;100.00;64804.84;5032162;28;20210;-56
2023/05/30 06:48:20;;;;;;;13.32;6.72;;;;;;;17.63;100.00;64821.94;5032148;28;20719;-56
2023/05/30 06:50:46;;;;;;;13.23;8.15;;;;;;;17.63;100.00;64823.97;5032096;28;20263;-60
2023/05/30 06:53:11;;;;;;;14.45;8.00;;;;;;;17.59;100.00;64820.09;5014451;28;20241;-61
2023/05/30 06:55:37;;;;;;;21.05;9.02;;;;;;;17.70;100.00;64829.13;5032006;28;20220;-60
2023/05/30 06:58:05;;;;;;;15.95;10.15;;;;;;;17.60;100.00;64821.19;5031978;28;20675;-59
2023/05/30 07:00:31;;;;;;;19.15;9.35;;;;;;;17.38;100.00;64796.94;5031817;28;20193;-60
2023/05/30 07:02:56;;;;;;;22.35;10.18;;;;;;;17.29;100.00;64783.94;5031734;28;20194;-63
2023/05/30 07:05:22;;;;;;;22.73;10.35;;;;;;;17.34;100.00;64789.44;5031446;28;20214;-61
2023/05/30 07:07:48;;;;;;;16.48;9.55;;;;;;;17.38;100.00;64793.84;5031594;28;20229;-59
2023/05/30 07:10:13;;;;;;;27.70;9.52;;;;;;;17.65;100.00;64825.63;5031772;28;20190;-60
2023/05/30 07:12:39;;;;;;;18.92;9.70;;;;;;;17.51;100.00;64808.19;5031497;28;20336;-60
2023/05/30 07:15:06;;;;;;;16.45;8.98;;;;;;;17.46;100.00;64802.66;5031551;28;20690;-59
2023/05/30 07:17:32;;;;;;;12.50;9.57;;;;;;;17.50;100.00;64807.09;5031568;28;20186;-62
2023/05/30 07:19:57;;;;;;;19.00;9.95;;;;;;;17.56;100.00;64814.25;5031575;28;20692;-59
2023/05/30 07:22:23;;;;;;;17.67;10.45;;;;;;;17.52;100.00;64809.28;5031448;28;20213;-59
2023/05/30 07:24:48;;;;;;;21.65;10.00;;;;;;;17.52;100.00;64809.28;5013532;28;20210;-59
2023/05/30 07:27:14;;;;;;;18.33;9.35;;;;;;;17.62;100.00;64822.84;5031212;28;20700;-59
2023/05/30 07:29:40;;;;;;;18.33;9.80;;;;;;;17.77;100.00;64836.28;5029906;28;20225;-59
2023/05/30 07:32:06;;;;;;;23.27;9.95;;;;;;;17.80;100.00;64842.69;5032008;28;20182;-60
2023/05/30 07:34:31;;;;;;;18.05;10.02;;;;;;;17.47;100.00;64803.75;5030848;28;20218;-61
2023/05/30 07:36:57;;;;;;;21.63;10.30;;;;;;;17.52;100.00;64809.84;5031057;28;20188;-60
2023/05/30 07:39:23;;;;;;;15.82;9.70;;;;;;;17.79;100.00;64839.06;5031321;28;20549;-63
2023/05/30 07:41:48;;;;;;;17.50;10.80;;;;;;;17.70;100.00;64831.66;5031064;28;20269;-59
2023/05/30 07:44:14;;;;;;;15.63;9.82;;;;;;;17.70;100.00;64831.66;5031470;28;20364;-60
2023/05/30 07:46:39;;;;;;;15.63;10.05;;;;;;;17.78;100.00;64837.38;5030900;28;20221;-59
2023/05/30 07:49:05;;;;;;;18.63;10.18;;;;;;;17.55;100.00;64815.16;5030952;28;20715;-60
2023/05/30 07:51:31;;;;;;;18.70;11.20;;;;;;;17.51;100.00;64810.75;5030874;28;20213;-59
2023/05/30 07:53:56;;;;;;;23.63;11.13;;;;;;;17.44;100.00;64803.56;5030876;28;20210;-60
2023/05/30 07:56:22;;;;;;;14.30;10.95;;;;;;;17.72;100.00;64833.31;5030780;28;20197;-58
2023/05/30 07:58:47;;;;;;;17.95;10.88;;;;;;;17.77;100.00;64839.41;5031057;28;20210;-60
2023/05/30 08:01:13;;;;;;;21.65;11.25;;;;;;;17.87;100.00;64847.88;5030706;28;20591;-59
2023/05/30 08:03:38;;;;;;;21.10;10.25;;;;;;;18.26;100.00;64892.88;5030895;28;20198;-58
2023/05/30 08:06:04;;;;;;;18.02;10.35;;;;;;;18.33;100.00;64900.59;5030713;28;20210;-59
2023/05/30 08:08:29;;;;;;;19.35;10.18;;;;;;;18.50;100.00;64916.25;5030751;28;20240;-61
2023/05/30 08:10:55;;;;;;;18.17;10.57;;;;;;;18.59;100.00;64926.16;5030625;28;20277;-60
2023/05/30 08:13:26;;;;;;;18.42;9.88;;;;;;;18.73;100.00;64942.19;5030685;28;20214;-56
2023/05/30 08:15:58;;;;;;;16.10;8.00;;;;;;;18.70;98.34;64938.31;5030758;28;20190;-56
2023/05/30 08:18:24;;;;;;;16.25;8.60;;;;;;;18.93;100.00;64961.13;5030662;28;20218;-55
2023/05/30 08:20:51;;;;;;;13.48;7.57;;;;;;;19.06;100.00;64978.59;5030662;28;20611;-56
2023/05/30 08:23:16;;;;;;;15.32;6.75;;;;;;;18.93;100.00;64963.69;5030697;28;20221;-58
2023/05/30 08:25:45;;;;;;;14.05;6.35;;;;;;;19.18;96.52;64991.28;5030658;28;20205;-56
2023/05/30 08:28:11;;;;;;;7.78;5.63;;;;;;;19.21;94.41;64992.03;5030415;28;20232;-57
2023/05/30 08:30:37;;;;;;;8.45;5.63;;;;;;;19.12;90.91;64985.22;5030440;28;20179;-56
2023/05/30 08:33:02;;;;;;;9.05;5.30;;;;;;;19.22;94.87;64995.69;5030690;28;20190;-56
2023/05/30 08:35:28;;;;;;;8.60;5.70;;;;;;;19.39;92.45;65014.50;5030142;28;20191;-58
2023/05/30 08:37:54;;;;;;;9.48;6.00;;;;;;;19.24;97.97;64997.91;5030190;28;20179;-57
2023/05/30 08:40:22;;;;;;;9.02;5.90;;;;;;;19.33;95.53;65010.44;5030192;28;20186;-57
2023/05/30 08:42:48;;;;;;;7.82;5.85;;;;;;;19.34;94.85;65006.41;5012197;28;20691;-57
2023/05/30 08:45:13;;;;;;;8.40;5.63;;;;;;;19.22;94.87;64998.25;5013527;28;20194;-56
2023/05/30 08:47:40;;;;;;;7.93;6.13;;;;;;;19.24;93.37;64998.47;5033701;28;20179;-56
2023/05/30 08:50:09;;;;;;;9.00;6.57;;;;;;;19.41;97.09;65016.69;5033453;28;20216;-57
2023/05/30 08:52:35;;;;;;;11.73;7.65;;;;;;;19.19;97.49;64995.50;5033536;28;20181;-56
2023/05/30 08:55:22;;;;;;;10.60;7.68;;;;;;;19.36;98.48;65010.63;5033437;28;20234;-59
2023/05/30 08:58:14;;;;;;;11.75;7.43;;;;;;;19.68;96.11;65046.50;5033351;28;20205;-57
2023/05/30 09:00:40;;;;;;;8.50;6.80;;;;;;;19.66;96.70;65041.72;5033440;28;20611;-58
2023/05/30 09:03:08;;;;;;;16.42;10.60;;;;;;;19.59;95.64;65034.00;5033329;28;20209;-57
2023/05/30 09:05:35;;;;;;;15.00;9.65;;;;;;;19.69;95.11;65050.19;5033266;28;20773;-57
2023/05/30 09:08:02;;;;;;;14.23;8.35;;;;;;;19.89;95.29;65069.69;5033296;28;20186;-57
2023/05/30 09:10:28;;;;;;;13.70;7.75;;;;;;;19.63;98.26;65043.56;5033230;28;20186;-56
2023/05/30 09:12:55;;;;;;;7.85;5.63;;;;;;;19.54;95.54;65031.03;5033117;28;20275;-56
2023/05/30 09:15:20;;;;;;;9.52;6.40;;;;;;;19.20;97.83;64993.50;5033164;28;20186;-57
2023/05/30 09:17:46;;;;;;;9.68;6.10;;;;;;;19.23;98.08;64996.78;5033158;28;20510;-56
2023/05/30 09:20:18;;;;;;;9.60;4.45;;;;;;;19.71;96.07;65049.81;5033315;28;20194;-57
2023/05/30 09:22:45;;;;;;;9.65;5.07;;;;;;;19.57;95.98;65034.38;5033007;28;20202;-58
2023/05/30 09:25:12;;;;;;;5.30;3.90;;;;;;;20.00;94.72;65081.28;5032948;28;20211;-58
2023/05/30 09:27:38;;;;;;;7.55;3.90;;;;;;;19.76;93.01;65055.34;5032666;28;20240;-59
2023/05/30 09:30:11;;;;;;;10.77;4.03;;;;;;;19.60;96.65;65034.56;5032735;28;20214;-58
2023/05/30 09:32:38;;;;;;;5.53;3.58;;;;;;;19.78;97.50;65057.53;5032809;28;20182;-58
2023/05/30 09:35:09;;;;;;;8.75;3.72;;;;;;;20.08;96.55;65088.13;5032509;28;20288;-59
2023/05/30 09:37:43;;;;;;;3.83;3.40;;;;;;;20.04;94.50;65088.25;5032849;28;20182;-57
2023/05/30 09:40:11;;;;;;;7.13;3.78;;;;;;;20.23;91.78;65106.16;5032718;28;20234;-56
2023/05/30 09:42:40;;;;;;;7.93;4.00;;;;;;;20.63;91.01;65148.34;5032696;28;20186;-56
2023/05/30 09:45:08;;;;;;;8.38;4.13;;;;;;;20.81;90.32;65172.81;5032426;28;20202;-57
2023/05/30 09:47:42;;;;;;;5.93;4.35;;;;;;;20.89;89.97;65176.53;5032702;28;20236;-57
2023/05/30 09:50:09;;;;;;;11.52;4.32;;;;;;;20.87;89.82;65177.44;5032577;28;20206;-56
2023/05/30 09:52:36;;;;;;;8.18;4.88;;;;;;;20.39;86.84;65124.41;5032734;28;20190;-57
2023/05/30 09:55:06;;;;;;;5.78;5.00;;;;;;;20.68;84.67;65158.47;5032624;28;20213;-56
2023/05/30 09:57:35;;;;;;;7.90;4.60;;;;;;;20.72;85.52;65160.31;5031165;28;20275;-57
2023/05/30 10:00:25;;;;;;;10.52;4.70;;;;;;;20.68;87.29;65156.47;5032435;28;20293;-58
2023/05/30 10:02:53;;;;;;;6.32;4.07;;;;;;;20.57;86.81;65141.72;5022392;28;20573;-56
2023/05/30 10:05:20;;;;;;;6.82;3.95;;;;;;;20.67;88.15;65154.78;5032122;28;20244;-56
2023/05/30 10:07:48;;;;;;;5.55;4.10;;;;;;;20.78;83.20;65167.50;5032268;28;20178;-57
2023/05/30 10:10:14;;;;;;;5.22;4.25;;;;;;;20.39;82.34;65126.41;5030300;28;20248;-58
2023/05/30 10:12:45;;;;;;;8.75;5.80;;;;;;;20.36;81.20;65123.63;5031167;28;20182;-57
2023/05/30 10:15:11;;;;;;;11.90;6.60;;;;;;;20.16;85.43;65098.41;5031794;28;20265;-57
2023/05/30 10:17:44;;;;;;;11.07;7.15;;;;;;;20.53;86.14;65139.31;5032092;28;20649;-58
2023/05/30 10:20:12;;;;;;;12.77;7.78;;;;;;;20.70;85.96;65158.09;5032194;28;20221;-58
2023/05/30 10:22:46;;;;;;;11.43;7.18;;;;;;;20.64;85.42;65154.03;5030478;28;20186;-58
2023/05/30 10:25:12;;;;;;;11.07;7.05;;;;;;;20.25;85.69;65105.81;5031893;28;20268;-57
2023/05/30 10:27:56;;;;;;;9.30;7.13;;;;;;;20.02;86.89;65086.59;5031903;28;20178;-58
2023/05/30 10:30:29;;;;;;;9.32;5.45;;;;;;;20.27;86.57;65110.59;5032010;28;20201;-57
2023/05/30 10:33:09;;;;;;;6.53;5.05;;;;;;;20.66;82.53;65153.69;5031839;28;20275;-56
2023/05/30 10:35:35;;;;;;;11.85;3.88;;;;;;;20.85;81.90;65175.25;5031654;28;20190;-56
2023/05/30 10:38:04;;;;;;;5.30;3.15;;;;;;;20.79;83.97;65165.47;5031723;28;20290;-56
2023/05/30 10:40:39;;;;;;;6.20;2.95;;;;;;;21.01;82.44;65192.38;5031821;28;20221;-57
2023/05/30 10:43:24;;;;;;;6.25;2.90;;;;;;;20.92;83.73;65183.00;5031601;28;20198;-58
2023/05/30 10:46:04;;;;;;;6.57;3.25;;;;;;;21.00;84.92;65190.72;5031605;28;20217;-56
2023/05/30 10:48:54;;;;;;;4.45;3.10;;;;;;;21.09;84.23;65201.22;5031776;28;20253;-57
2023/05/30 10:51:20;;;;;;;4.97;2.40;;;;;;;21.08;79.13;65200.13;5031768;28;20182;-57
2023/05/30 10:53:47;;;;;;;7.95;2.78;;;;;;;21.03;80.72;65197.16;5031516;28;20217;-57
2023/05/30 10:56:34;;;;;;;4.60;2.70;;;;;;;21.26;79.51;65220.03;5013730;28;20251;-57
2023/05/30 10:59:02;;;;;;;3.15;2.22;;;;;;;21.52;74.84;65248.78;5031843;28;20703;-63
2023/05/30 11:01:31;;;;;;;3.80;2.70;;;;;;;22.05;77.95;65306.34;5031457;28;20182;-57
2023/05/30 11:04:08;;;;;;;4.30;2.70;;;;;;;22.63;72.64;65368.00;5031579;28;20217;-58
2023/05/30 11:06:45;;;;;;;2.75;2.42;;;;;;;23.29;72.44;65441.09;5031344;28;20714;-57
2023/05/30 11:09:12;;;;;;;4.72;3.00;;;;;;;23.71;71.21;65489.13;5031107;28;20217;-59
2023/05/30 11:11:43;;;;;;;4.80;2.70;;;;;;;23.78;71.59;65496.88;5031400;28;20202;-59
2023/05/30 11:14:10;;;;;;;5.93;3.70;;;;;;;23.67;66.43;65482.69;5031261;28;20209;-61
2023/05/30 11:16:55;;;;;;;4.13;2.72;;;;;;;23.85;66.50;65505.22;5031151;28;20194;-60
2023/05/30 11:19:35;;;;;;;3.92;3.30;;;;;;;24.19;63.62;65539.78;5031311;28;20218;-58
2023/05/30 11:25:18;;;;;;;6.65;4.07;;;;;;;23.98;62.58;65513.91;5031185;28;20706;-59
2023/05/30 11:28:12;;;;;;;8.32;4.32;;;;;;;23.50;66.82;65465.84;5031206;28;20247;-59
2023/05/30 11:30:38;;;;;;;4.53;3.17;;;;;;;24.17;62.81;65540.69;5031453;28;20194;-57